sensor_id;sensor_type;location;lat;lon;timestamp;P1;durP1;ratioP1;P2;durP2;ratioP2
33714;SDS011;20043;50.998;4.754;2022-08-03T00:01:23;9.88;;;2.40;;
33714;SDS011;20043;50.998;4.754;2022-08-03T00:03:49;6.93;;;2.20;;
33714;SDS011;20043;50.998;4.754;2022-08-03T00:06:14;8.07;;;2.53;;
33714;SDS011;20043;50.998;4.754;2022-08-03T00:08:40;12.05;;;2.42;;
33714;SDS011;20043;50.998;4.754;2022-08-03T00:11:06;8.07;;;2.70;;
33714;SDS011;20043;50.998;4.754;2022-08-03T00:13:32;11.55;;;2.60;;
33714;SDS011;20043;50.998;4.754;2022-08-03T00:15:58;6.55;;;2.10;;
33714;SDS011;20043;50.998;4.754;2022-08-03T00:18:23;7.70;;;2.10;;
33714;SDS011;20043;50.998;4.754;2022-08-03T00:20:49;10.02;;;3.00;;
33714;SDS011;20043;50.998;4.754;2022-08-03T00:23:15;11.68;;;2.70;;
33714;SDS011;20043;50.998;4.754;2022-08-03T00:25:41;6.22;;;2.20;;
33714;SDS011;20043;50.998;4.754;2022-08-03T00:28:06;8.10;;;2.38;;
33714;SDS011;20043;50.998;4.754;2022-08-03T00:30:33;7.53;;;2.38;;
33714;SDS011;20043;50.998;4.754;2022-08-03T00:32:59;9.07;;;2.65;;
33714;SDS011;20043;50.998;4.754;2022-08-03T00:35:25;10.60;;;2.47;;
33714;SDS011;20043;50.998;4.754;2022-08-03T00:37:51;12.05;;;2.50;;
33714;SDS011;20043;50.998;4.754;2022-08-03T00:40:17;8.45;;;2.88;;
33714;SDS011;20043;50.998;4.754;2022-08-03T00:42:57;10.75;;;2.60;;
33714;SDS011;20043;50.998;4.754;2022-08-03T00:45:25;12.40;;;2.40;;
33714;SDS011;20043;50.998;4.754;2022-08-03T00:47:52;7.70;;;2.55;;
33714;SDS011;20043;50.998;4.754;2022-08-03T00:50:18;8.07;;;2.30;;
33714;SDS011;20043;50.998;4.754;2022-08-03T00:52:47;10.35;;;2.42;;
33714;SDS011;20043;50.998;4.754;2022-08-03T00:55:13;8.30;;;2.83;;
33714;SDS011;20043;50.998;4.754;2022-08-03T00:57:38;8.23;;;2.40;;
33714;SDS011;20043;50.998;4.754;2022-08-03T01:00:05;6.68;;;2.40;;
33714;SDS011;20043;50.998;4.754;2022-08-03T01:02:32;8.40;;;2.60;;
33714;SDS011;20043;50.998;4.754;2022-08-03T01:04:58;9.35;;;2.67;;
33714;SDS011;20043;50.998;4.754;2022-08-03T01:07:40;9.75;;;2.47;;
33714;SDS011;20043;50.998;4.754;2022-08-03T01:13:02;7.07;;;2.28;;
33714;SDS011;20043;50.998;4.754;2022-08-03T01:15:37;5.18;;;1.92;;
33714;SDS011;20043;50.998;4.754;2022-08-03T01:22:17;11.68;;;2.88;;
33714;SDS011;20043;50.998;4.754;2022-08-03T01:27:08;8.43;;;2.70;;
33714;SDS011;20043;50.998;4.754;2022-08-03T01:32:25;8.35;;;2.30;;
33714;SDS011;20043;50.998;4.754;2022-08-03T01:34:59;4.75;;;2.03;;
33714;SDS011;20043;50.998;4.754;2022-08-03T01:37:31;11.10;;;2.28;;
33714;SDS011;20043;50.998;4.754;2022-08-03T01:40:17;7.65;;;2.10;;
33714;SDS011;20043;50.998;4.754;2022-08-03T01:42:44;7.15;;;2.40;;
33714;SDS011;20043;50.998;4.754;2022-08-03T01:45:12;6.63;;;2.83;;
33714;SDS011;20043;50.998;4.754;2022-08-03T01:47:39;5.70;;;2.35;;
33714;SDS011;20043;50.998;4.754;2022-08-03T01:50:06;7.63;;;2.50;;
33714;SDS011;20043;50.998;4.754;2022-08-03T01:52:34;7.35;;;2.33;;
33714;SDS011;20043;50.998;4.754;2022-08-03T01:55:04;7.82;;;2.25;;
33714;SDS011;20043;50.998;4.754;2022-08-03T01:57:31;8.52;;;2.38;;
33714;SDS011;20043;50.998;4.754;2022-08-03T01:59:59;9.05;;;1.80;;
33714;SDS011;20043;50.998;4.754;2022-08-03T02:02:25;10.07;;;3.42;;
33714;SDS011;20043;50.998;4.754;2022-08-03T02:04:52;6.63;;;2.17;;
33714;SDS011;20043;50.998;4.754;2022-08-03T02:07:19;7.72;;;2.30;;
33714;SDS011;20043;50.998;4.754;2022-08-03T02:09:45;4.85;;;2.10;;
33714;SDS011;20043;50.998;4.754;2022-08-03T02:12:14;5.80;;;2.03;;
33714;SDS011;20043;50.998;4.754;2022-08-03T02:14:42;6.57;;;2.20;;
33714;SDS011;20043;50.998;4.754;2022-08-03T02:17:09;3.22;;;2.15;;
33714;SDS011;20043;50.998;4.754;2022-08-03T02:19:37;7.53;;;1.92;;
33714;SDS011;20043;50.998;4.754;2022-08-03T02:22:04;5.90;;;2.00;;
33714;SDS011;20043;50.998;4.754;2022-08-03T02:24:34;9.50;;;2.55;;
33714;SDS011;20043;50.998;4.754;2022-08-03T02:27:00;4.13;;;1.83;;
33714;SDS011;20043;50.998;4.754;2022-08-03T02:29:30;4.95;;;2.00;;
33714;SDS011;20043;50.998;4.754;2022-08-03T02:31:58;9.07;;;2.40;;
33714;SDS011;20043;50.998;4.754;2022-08-03T02:34:28;3.88;;;2.05;;
33714;SDS011;20043;50.998;4.754;2022-08-03T02:36:55;6.18;;;2.05;;
33714;SDS011;20043;50.998;4.754;2022-08-03T02:39:24;9.07;;;2.50;;
33714;SDS011;20043;50.998;4.754;2022-08-03T02:41:54;5.30;;;2.08;;
33714;SDS011;20043;50.998;4.754;2022-08-03T02:44:26;3.83;;;2.20;;
33714;SDS011;20043;50.998;4.754;2022-08-03T02:46:56;4.82;;;1.92;;
33714;SDS011;20043;50.998;4.754;2022-08-03T02:49:29;6.47;;;2.30;;
33714;SDS011;20043;50.998;4.754;2022-08-03T02:51:55;3.83;;;2.00;;
33714;SDS011;20043;50.998;4.754;2022-08-03T02:54:23;6.22;;;2.00;;
33714;SDS011;20043;50.998;4.754;2022-08-03T02:56:50;8.88;;;2.30;;
33714;SDS011;20043;50.998;4.754;2022-08-03T02:59:17;4.97;;;1.95;;
33714;SDS011;20043;50.998;4.754;2022-08-03T03:01:45;8.50;;;2.00;;
33714;SDS011;20043;50.998;4.754;2022-08-03T03:04:11;6.55;;;1.90;;
33714;SDS011;20043;50.998;4.754;2022-08-03T03:06:38;6.03;;;2.15;;
33714;SDS011;20043;50.998;4.754;2022-08-03T03:09:04;6.00;;;2.08;;
33714;SDS011;20043;50.998;4.754;2022-08-03T03:11:31;8.10;;;2.47;;
33714;SDS011;20043;50.998;4.754;2022-08-03T03:14:00;6.65;;;1.95;;
33714;SDS011;20043;50.998;4.754;2022-08-03T03:16:27;6.50;;;2.03;;
33714;SDS011;20043;50.998;4.754;2022-08-03T03:18:54;7.53;;;2.03;;
33714;SDS011;20043;50.998;4.754;2022-08-03T03:21:21;8.20;;;2.00;;
33714;SDS011;20043;50.998;4.754;2022-08-03T03:23:48;8.05;;;2.25;;
33714;SDS011;20043;50.998;4.754;2022-08-03T03:26:14;7.47;;;2.30;;
33714;SDS011;20043;50.998;4.754;2022-08-03T03:28:40;6.47;;;2.03;;
33714;SDS011;20043;50.998;4.754;2022-08-03T03:31:06;8.45;;;3.10;;
33714;SDS011;20043;50.998;4.754;2022-08-03T03:33:33;6.65;;;2.08;;
33714;SDS011;20043;50.998;4.754;2022-08-03T03:35:59;8.52;;;2.13;;
33714;SDS011;20043;50.998;4.754;2022-08-03T03:38:26;5.28;;;1.80;;
33714;SDS011;20043;50.998;4.754;2022-08-03T03:40:52;5.70;;;2.00;;
33714;SDS011;20043;50.998;4.754;2022-08-03T03:43:18;4.80;;;1.80;;
33714;SDS011;20043;50.998;4.754;2022-08-03T03:45:46;6.35;;;2.03;;
33714;SDS011;20043;50.998;4.754;2022-08-03T03:48:13;5.50;;;1.88;;
33714;SDS011;20043;50.998;4.754;2022-08-03T03:50:39;6.90;;;2.05;;
33714;SDS011;20043;50.998;4.754;2022-08-03T03:53:07;6.07;;;1.90;;
33714;SDS011;20043;50.998;4.754;2022-08-03T03:55:34;4.78;;;1.77;;
33714;SDS011;20043;50.998;4.754;2022-08-03T03:58:00;9.57;;;1.80;;
33714;SDS011;20043;50.998;4.754;2022-08-03T04:00:27;4.43;;;1.92;;
33714;SDS011;20043;50.998;4.754;2022-08-03T04:02:53;6.05;;;2.22;;
33714;SDS011;20043;50.998;4.754;2022-08-03T04:05:19;8.55;;;1.88;;
33714;SDS011;20043;50.998;4.754;2022-08-03T04:08:05;6.75;;;1.95;;
33714;SDS011;20043;50.998;4.754;2022-08-03T04:11:13;7.28;;;1.92;;
33714;SDS011;20043;50.998;4.754;2022-08-03T04:13:54;5.85;;;1.90;;
33714;SDS011;20043;50.998;4.754;2022-08-03T04:16:20;6.25;;;1.70;;
33714;SDS011;20043;50.998;4.754;2022-08-03T04:18:50;10.13;;;2.30;;
33714;SDS011;20043;50.998;4.754;2022-08-03T04:21:20;5.30;;;1.95;;
33714;SDS011;20043;50.998;4.754;2022-08-03T04:23:48;9.80;;;2.42;;
33714;SDS011;20043;50.998;4.754;2022-08-03T04:26:20;10.20;;;2.10;;
33714;SDS011;20043;50.998;4.754;2022-08-03T04:28:49;7.13;;;1.95;;
33714;SDS011;20043;50.998;4.754;2022-08-03T04:31:16;7.93;;;2.25;;
33714;SDS011;20043;50.998;4.754;2022-08-03T04:33:46;10.45;;;1.83;;
33714;SDS011;20043;50.998;4.754;2022-08-03T04:36:15;11.43;;;1.95;;
33714;SDS011;20043;50.998;4.754;2022-08-03T04:38:58;6.50;;;1.95;;
33714;SDS011;20043;50.998;4.754;2022-08-03T04:41:33;13.38;;;2.30;;
33714;SDS011;20043;50.998;4.754;2022-08-03T04:44:00;7.82;;;2.03;;
33714;SDS011;20043;50.998;4.754;2022-08-03T04:46:30;10.77;;;2.13;;
33714;SDS011;20043;50.998;4.754;2022-08-03T04:48:59;6.93;;;1.92;;
33714;SDS011;20043;50.998;4.754;2022-08-03T04:51:26;8.35;;;1.92;;
33714;SDS011;20043;50.998;4.754;2022-08-03T04:53:52;6.15;;;1.98;;
33714;SDS011;20043;50.998;4.754;2022-08-03T04:56:17;5.75;;;1.65;;
33714;SDS011;20043;50.998;4.754;2022-08-03T04:58:43;7.60;;;1.80;;
33714;SDS011;20043;50.998;4.754;2022-08-03T05:01:09;5.85;;;1.60;;
33714;SDS011;20043;50.998;4.754;2022-08-03T05:03:35;6.95;;;1.98;;
33714;SDS011;20043;50.998;4.754;2022-08-03T05:06:01;5.70;;;1.67;;
33714;SDS011;20043;50.998;4.754;2022-08-03T05:08:27;6.25;;;1.50;;
33714;SDS011;20043;50.998;4.754;2022-08-03T05:10:53;6.32;;;1.52;;
33714;SDS011;20043;50.998;4.754;2022-08-03T05:13:19;5.57;;;1.75;;
33714;SDS011;20043;50.998;4.754;2022-08-03T05:15:44;6.00;;;1.90;;
33714;SDS011;20043;50.998;4.754;2022-08-03T05:18:10;8.77;;;2.25;;
33714;SDS011;20043;50.998;4.754;2022-08-03T05:20:35;4.57;;;1.63;;
33714;SDS011;20043;50.998;4.754;2022-08-03T05:23:01;7.45;;;1.60;;
33714;SDS011;20043;50.998;4.754;2022-08-03T05:25:28;5.38;;;1.48;;
33714;SDS011;20043;50.998;4.754;2022-08-03T05:27:54;8.15;;;1.98;;
33714;SDS011;20043;50.998;4.754;2022-08-03T05:30:20;9.75;;;1.80;;
33714;SDS011;20043;50.998;4.754;2022-08-03T05:32:45;7.43;;;1.80;;
33714;SDS011;20043;50.998;4.754;2022-08-03T05:35:11;7.60;;;2.08;;
33714;SDS011;20043;50.998;4.754;2022-08-03T05:37:37;8.13;;;1.98;;
33714;SDS011;20043;50.998;4.754;2022-08-03T05:40:03;7.72;;;1.83;;
33714;SDS011;20043;50.998;4.754;2022-08-03T05:42:35;6.57;;;1.52;;
33714;SDS011;20043;50.998;4.754;2022-08-03T05:45:04;6.70;;;2.08;;
33714;SDS011;20043;50.998;4.754;2022-08-03T05:47:41;7.03;;;1.70;;
33714;SDS011;20043;50.998;4.754;2022-08-03T05:50:08;5.05;;;1.73;;
33714;SDS011;20043;50.998;4.754;2022-08-03T05:52:37;5.93;;;1.98;;
33714;SDS011;20043;50.998;4.754;2022-08-03T05:55:05;7.13;;;1.80;;
33714;SDS011;20043;50.998;4.754;2022-08-03T05:57:31;7.75;;;1.70;;
33714;SDS011;20043;50.998;4.754;2022-08-03T05:59:56;4.85;;;1.52;;
33714;SDS011;20043;50.998;4.754;2022-08-03T06:02:22;6.13;;;2.00;;
33714;SDS011;20043;50.998;4.754;2022-08-03T06:04:48;12.35;;;1.50;;
33714;SDS011;20043;50.998;4.754;2022-08-03T06:07:13;6.32;;;1.73;;
33714;SDS011;20043;50.998;4.754;2022-08-03T06:09:39;8.95;;;1.67;;
33714;SDS011;20043;50.998;4.754;2022-08-03T06:12:05;5.45;;;1.50;;
33714;SDS011;20043;50.998;4.754;2022-08-03T06:14:31;12.85;;;2.10;;
33714;SDS011;20043;50.998;4.754;2022-08-03T06:16:57;7.90;;;1.75;;
33714;SDS011;20043;50.998;4.754;2022-08-03T06:19:22;8.57;;;1.85;;
33714;SDS011;20043;50.998;4.754;2022-08-03T06:21:49;5.03;;;1.40;;
33714;SDS011;20043;50.998;4.754;2022-08-03T06:24:15;9.82;;;1.60;;
33714;SDS011;20043;50.998;4.754;2022-08-03T06:26:40;8.25;;;1.95;;
33714;SDS011;20043;50.998;4.754;2022-08-03T06:29:06;8.55;;;1.70;;
33714;SDS011;20043;50.998;4.754;2022-08-03T06:31:32;11.10;;;2.17;;
33714;SDS011;20043;50.998;4.754;2022-08-03T06:33:58;8.02;;;1.67;;
33714;SDS011;20043;50.998;4.754;2022-08-03T06:36:24;4.72;;;1.67;;
33714;SDS011;20043;50.998;4.754;2022-08-03T06:38:55;8.23;;;1.58;;
33714;SDS011;20043;50.998;4.754;2022-08-03T06:41:22;7.28;;;1.40;;
33714;SDS011;20043;50.998;4.754;2022-08-03T06:43:47;4.68;;;1.58;;
33714;SDS011;20043;50.998;4.754;2022-08-03T06:46:13;7.00;;;1.50;;
33714;SDS011;20043;50.998;4.754;2022-08-03T06:48:38;7.82;;;1.60;;
33714;SDS011;20043;50.998;4.754;2022-08-03T06:51:04;3.70;;;1.40;;
33714;SDS011;20043;50.998;4.754;2022-08-03T06:53:29;8.52;;;1.50;;
33714;SDS011;20043;50.998;4.754;2022-08-03T06:55:55;6.20;;;1.75;;
33714;SDS011;20043;50.998;4.754;2022-08-03T06:58:21;3.38;;;1.55;;
33714;SDS011;20043;50.998;4.754;2022-08-03T07:00:46;6.82;;;1.77;;
33714;SDS011;20043;50.998;4.754;2022-08-03T07:03:12;6.72;;;1.73;;
33714;SDS011;20043;50.998;4.754;2022-08-03T07:05:39;5.85;;;1.50;;
33714;SDS011;20043;50.998;4.754;2022-08-03T07:08:05;4.90;;;1.55;;
33714;SDS011;20043;50.998;4.754;2022-08-03T07:10:31;5.85;;;1.40;;
33714;SDS011;20043;50.998;4.754;2022-08-03T07:12:57;7.10;;;1.70;;
33714;SDS011;20043;50.998;4.754;2022-08-03T07:15:23;4.07;;;1.15;;
33714;SDS011;20043;50.998;4.754;2022-08-03T07:17:49;8.38;;;1.40;;
33714;SDS011;20043;50.998;4.754;2022-08-03T07:20:15;5.90;;;1.45;;
33714;SDS011;20043;50.998;4.754;2022-08-03T07:22:42;7.93;;;1.92;;
33714;SDS011;20043;50.998;4.754;2022-08-03T07:25:08;7.93;;;1.33;;
33714;SDS011;20043;50.998;4.754;2022-08-03T07:27:34;15.10;;;1.70;;
33714;SDS011;20043;50.998;4.754;2022-08-03T07:30:01;7.07;;;1.65;;
33714;SDS011;20043;50.998;4.754;2022-08-03T07:32:29;7.32;;;1.52;;
33714;SDS011;20043;50.998;4.754;2022-08-03T07:34:55;6.53;;;1.80;;
33714;SDS011;20043;50.998;4.754;2022-08-03T07:37:21;6.75;;;1.50;;
33714;SDS011;20043;50.998;4.754;2022-08-03T07:39:46;7.88;;;1.48;;
33714;SDS011;20043;50.998;4.754;2022-08-03T07:42:12;7.32;;;1.40;;
33714;SDS011;20043;50.998;4.754;2022-08-03T07:44:38;6.63;;;1.65;;
33714;SDS011;20043;50.998;4.754;2022-08-03T07:47:04;10.65;;;1.80;;
33714;SDS011;20043;50.998;4.754;2022-08-03T07:49:30;8.48;;;1.50;;
33714;SDS011;20043;50.998;4.754;2022-08-03T07:51:56;8.32;;;1.63;;
33714;SDS011;20043;50.998;4.754;2022-08-03T07:54:40;7.78;;;1.60;;
33714;SDS011;20043;50.998;4.754;2022-08-03T07:57:05;8.25;;;1.75;;
33714;SDS011;20043;50.998;4.754;2022-08-03T07:59:31;9.88;;;1.48;;
33714;SDS011;20043;50.998;4.754;2022-08-03T08:01:59;9.30;;;1.80;;
33714;SDS011;20043;50.998;4.754;2022-08-03T08:04:24;8.45;;;1.60;;
33714;SDS011;20043;50.998;4.754;2022-08-03T08:06:50;8.15;;;2.03;;
33714;SDS011;20043;50.998;4.754;2022-08-03T08:09:15;13.07;;;2.20;;
33714;SDS011;20043;50.998;4.754;2022-08-03T08:11:41;16.05;;;1.90;;
33714;SDS011;20043;50.998;4.754;2022-08-03T08:14:07;13.45;;;2.08;;
33714;SDS011;20043;50.998;4.754;2022-08-03T08:16:33;13.07;;;2.03;;
33714;SDS011;20043;50.998;4.754;2022-08-03T08:18:59;10.88;;;2.08;;
33714;SDS011;20043;50.998;4.754;2022-08-03T08:21:26;13.80;;;2.08;;
33714;SDS011;20043;50.998;4.754;2022-08-03T08:23:51;10.95;;;1.77;;
33714;SDS011;20043;50.998;4.754;2022-08-03T08:26:17;11.18;;;1.95;;
33714;SDS011;20043;50.998;4.754;2022-08-03T08:28:42;15.32;;;2.00;;
33714;SDS011;20043;50.998;4.754;2022-08-03T08:31:08;9.13;;;2.00;;
33714;SDS011;20043;50.998;4.754;2022-08-03T08:33:34;14.50;;;2.25;;
33714;SDS011;20043;50.998;4.754;2022-08-03T08:36:00;9.93;;;2.17;;
33714;SDS011;20043;50.998;4.754;2022-08-03T08:38:25;14.10;;;2.20;;
33714;SDS011;20043;50.998;4.754;2022-08-03T08:40:53;9.00;;;2.00;;
33714;SDS011;20043;50.998;4.754;2022-08-03T08:43:19;14.68;;;2.83;;
33714;SDS011;20043;50.998;4.754;2022-08-03T08:45:46;17.15;;;2.10;;
33714;SDS011;20043;50.998;4.754;2022-08-03T08:48:14;12.63;;;2.35;;
33714;SDS011;20043;50.998;4.754;2022-08-03T08:50:42;13.52;;;2.22;;
33714;SDS011;20043;50.998;4.754;2022-08-03T08:53:08;10.82;;;1.80;;
33714;SDS011;20043;50.998;4.754;2022-08-03T08:55:37;8.45;;;2.13;;
33714;SDS011;20043;50.998;4.754;2022-08-03T08:58:04;15.93;;;1.80;;
33714;SDS011;20043;50.998;4.754;2022-08-03T09:00:32;8.52;;;2.13;;
33714;SDS011;20043;50.998;4.754;2022-08-03T09:02:58;11.50;;;1.98;;
33714;SDS011;20043;50.998;4.754;2022-08-03T09:05:25;10.55;;;2.20;;
33714;SDS011;20043;50.998;4.754;2022-08-03T09:07:50;16.25;;;1.98;;
33714;SDS011;20043;50.998;4.754;2022-08-03T09:10:17;11.35;;;2.30;;
33714;SDS011;20043;50.998;4.754;2022-08-03T09:12:45;7.22;;;1.83;;
33714;SDS011;20043;50.998;4.754;2022-08-03T09:15:22;12.40;;;1.80;;
33714;SDS011;20043;50.998;4.754;2022-08-03T09:17:54;14.40;;;1.80;;
33714;SDS011;20043;50.998;4.754;2022-08-03T09:20:21;7.28;;;1.60;;
33714;SDS011;20043;50.998;4.754;2022-08-03T09:22:52;12.02;;;2.10;;
33714;SDS011;20043;50.998;4.754;2022-08-03T09:25:33;6.57;;;1.50;;
33714;SDS011;20043;50.998;4.754;2022-08-03T09:28:05;10.90;;;1.70;;
33714;SDS011;20043;50.998;4.754;2022-08-03T09:30:36;6.40;;;1.88;;
33714;SDS011;20043;50.998;4.754;2022-08-03T09:33:04;8.02;;;1.80;;
33714;SDS011;20043;50.998;4.754;2022-08-03T09:35:44;5.78;;;1.60;;
33714;SDS011;20043;50.998;4.754;2022-08-03T09:38:12;13.18;;;1.92;;
33714;SDS011;20043;50.998;4.754;2022-08-03T09:40:42;8.88;;;1.73;;
33714;SDS011;20043;50.998;4.754;2022-08-03T09:43:09;8.82;;;1.50;;
33714;SDS011;20043;50.998;4.754;2022-08-03T09:45:39;8.02;;;1.83;;
33714;SDS011;20043;50.998;4.754;2022-08-03T09:48:38;6.70;;;1.33;;
33714;SDS011;20043;50.998;4.754;2022-08-03T09:51:02;15.45;;;1.80;;
33714;SDS011;20043;50.998;4.754;2022-08-03T09:53:28;9.18;;;2.00;;
33714;SDS011;20043;50.998;4.754;2022-08-03T09:55:58;10.00;;;1.50;;
33714;SDS011;20043;50.998;4.754;2022-08-03T09:58:25;8.13;;;1.88;;
33714;SDS011;20043;50.998;4.754;2022-08-03T10:03:29;7.47;;;1.48;;
33714;SDS011;20043;50.998;4.754;2022-08-03T10:05:56;5.90;;;1.30;;
33714;SDS011;20043;50.998;4.754;2022-08-03T10:08:22;7.78;;;1.52;;
33714;SDS011;20043;50.998;4.754;2022-08-03T10:10:49;9.93;;;1.98;;
33714;SDS011;20043;50.998;4.754;2022-08-03T10:13:18;7.95;;;1.90;;
33714;SDS011;20043;50.998;4.754;2022-08-03T10:15:45;6.97;;;1.40;;
33714;SDS011;20043;50.998;4.754;2022-08-03T10:18:11;10.00;;;1.63;;
33714;SDS011;20043;50.998;4.754;2022-08-03T10:20:43;11.52;;;1.65;;
33714;SDS011;20043;50.998;4.754;2022-08-03T10:23:15;7.00;;;1.40;;
33714;SDS011;20043;50.998;4.754;2022-08-03T10:25:42;9.15;;;1.70;;
33714;SDS011;20043;50.998;4.754;2022-08-03T10:28:12;11.90;;;1.70;;
33714;SDS011;20043;50.998;4.754;2022-08-03T10:30:40;6.97;;;1.38;;
33714;SDS011;20043;50.998;4.754;2022-08-03T10:33:21;6.20;;;1.50;;
33714;SDS011;20043;50.998;4.754;2022-08-03T10:35:51;10.00;;;1.40;;
33714;SDS011;20043;50.998;4.754;2022-08-03T10:38:22;5.63;;;1.48;;
33714;SDS011;20043;50.998;4.754;2022-08-03T10:41:19;13.57;;;1.80;;
33714;SDS011;20043;50.998;4.754;2022-08-03T10:43:49;16.27;;;1.58;;
33714;SDS011;20043;50.998;4.754;2022-08-03T10:46:33;7.25;;;1.60;;
33714;SDS011;20043;50.998;4.754;2022-08-03T10:49:02;7.55;;;1.40;;
33714;SDS011;20043;50.998;4.754;2022-08-03T10:51:29;4.75;;;1.30;;
33714;SDS011;20043;50.998;4.754;2022-08-03T10:53:56;4.53;;;1.38;;
33714;SDS011;20043;50.998;4.754;2022-08-03T10:59:16;5.03;;;1.10;;
33714;SDS011;20043;50.998;4.754;2022-08-03T11:02:00;7.53;;;1.30;;
33714;SDS011;20043;50.998;4.754;2022-08-03T11:04:27;7.53;;;1.35;;
33714;SDS011;20043;50.998;4.754;2022-08-03T11:09:44;7.50;;;1.75;;
33714;SDS011;20043;50.998;4.754;2022-08-03T11:12:22;6.95;;;1.30;;
33714;SDS011;20043;50.998;4.754;2022-08-03T11:14:48;4.60;;;1.30;;
33714;SDS011;20043;50.998;4.754;2022-08-03T11:17:14;9.07;;;1.15;;
33714;SDS011;20043;50.998;4.754;2022-08-03T11:19:47;6.20;;;1.40;;
33714;SDS011;20043;50.998;4.754;2022-08-03T11:22:14;5.50;;;1.35;;
33714;SDS011;20043;50.998;4.754;2022-08-03T11:29:53;6.15;;;1.27;;
33714;SDS011;20043;50.998;4.754;2022-08-03T11:45:55;4.57;;;1.20;;
33714;SDS011;20043;50.998;4.754;2022-08-03T11:48:26;4.68;;;1.08;;
33714;SDS011;20043;50.998;4.754;2022-08-03T11:50:57;8.43;;;1.50;;
33714;SDS011;20043;50.998;4.754;2022-08-03T11:53:26;5.18;;;1.08;;
33714;SDS011;20043;50.998;4.754;2022-08-03T11:55:52;6.03;;;1.30;;
33714;SDS011;20043;50.998;4.754;2022-08-03T11:58:21;3.72;;;1.00;;
33714;SDS011;20043;50.998;4.754;2022-08-03T12:00:48;2.60;;;0.98;;
33714;SDS011;20043;50.998;4.754;2022-08-03T12:03:15;7.70;;;1.30;;
33714;SDS011;20043;50.998;4.754;2022-08-03T12:05:44;4.75;;;1.10;;
33714;SDS011;20043;50.998;4.754;2022-08-03T12:08:15;6.90;;;1.10;;
33714;SDS011;20043;50.998;4.754;2022-08-03T12:10:47;8.73;;;1.10;;
33714;SDS011;20043;50.998;4.754;2022-08-03T12:13:14;6.07;;;1.20;;
33714;SDS011;20043;50.998;4.754;2022-08-03T12:15:41;5.95;;;1.38;;
33714;SDS011;20043;50.998;4.754;2022-08-03T12:18:16;3.95;;;1.00;;
33714;SDS011;20043;50.998;4.754;2022-08-03T12:20:43;4.47;;;1.10;;
33714;SDS011;20043;50.998;4.754;2022-08-03T12:23:09;5.72;;;0.82;;
33714;SDS011;20043;50.998;4.754;2022-08-03T12:25:36;3.97;;;0.90;;
33714;SDS011;20043;50.998;4.754;2022-08-03T12:30:40;4.28;;;0.88;;
33714;SDS011;20043;50.998;4.754;2022-08-03T12:33:26;7.18;;;1.08;;
33714;SDS011;20043;50.998;4.754;2022-08-03T12:36:06;3.83;;;1.02;;
33714;SDS011;20043;50.998;4.754;2022-08-03T12:38:33;2.30;;;1.02;;
33714;SDS011;20043;50.998;4.754;2022-08-03T12:41:01;2.35;;;0.90;;
33714;SDS011;20043;50.998;4.754;2022-08-03T12:43:29;2.90;;;1.00;;
33714;SDS011;20043;50.998;4.754;2022-08-03T12:46:10;4.15;;;1.00;;
33714;SDS011;20043;50.998;4.754;2022-08-03T12:48:56;7.18;;;1.30;;
33714;SDS011;20043;50.998;4.754;2022-08-03T12:51:23;6.00;;;1.02;;
33714;SDS011;20043;50.998;4.754;2022-08-03T12:53:51;4.57;;;1.00;;
33714;SDS011;20043;50.998;4.754;2022-08-03T12:56:18;5.18;;;1.10;;
33714;SDS011;20043;50.998;4.754;2022-08-03T12:58:44;13.18;;;1.48;;
33714;SDS011;20043;50.998;4.754;2022-08-03T13:01:11;4.50;;;1.17;;
33714;SDS011;20043;50.998;4.754;2022-08-03T13:03:47;5.45;;;1.10;;
33714;SDS011;20043;50.998;4.754;2022-08-03T13:06:14;3.33;;;0.85;;
33714;SDS011;20043;50.998;4.754;2022-08-03T13:08:44;4.57;;;1.05;;
33714;SDS011;20043;50.998;4.754;2022-08-03T13:11:18;7.60;;;1.20;;
33714;SDS011;20043;50.998;4.754;2022-08-03T13:13:47;7.93;;;1.15;;
33714;SDS011;20043;50.998;4.754;2022-08-03T13:16:14;3.60;;;1.02;;
33714;SDS011;20043;50.998;4.754;2022-08-03T13:18:40;3.08;;;1.30;;
33714;SDS011;20043;50.998;4.754;2022-08-03T13:21:13;8.77;;;1.08;;
33714;SDS011;20043;50.998;4.754;2022-08-03T13:23:40;4.80;;;0.90;;
33714;SDS011;20043;50.998;4.754;2022-08-03T13:26:05;2.33;;;1.10;;
33714;SDS011;20043;50.998;4.754;2022-08-03T13:28:31;5.53;;;1.10;;
33714;SDS011;20043;50.998;4.754;2022-08-03T13:30:57;4.82;;;0.88;;
33714;SDS011;20043;50.998;4.754;2022-08-03T13:33:22;2.10;;;0.90;;
33714;SDS011;20043;50.998;4.754;2022-08-03T13:35:48;4.55;;;0.90;;
33714;SDS011;20043;50.998;4.754;2022-08-03T13:38:13;6.68;;;1.13;;
33714;SDS011;20043;50.998;4.754;2022-08-03T13:40:39;2.17;;;1.00;;
33714;SDS011;20043;50.998;4.754;2022-08-03T13:43:05;2.70;;;0.80;;
33714;SDS011;20043;50.998;4.754;2022-08-03T13:45:30;8.43;;;1.05;;
33714;SDS011;20043;50.998;4.754;2022-08-03T13:47:56;3.67;;;0.80;;
33714;SDS011;20043;50.998;4.754;2022-08-03T13:50:21;4.53;;;0.95;;
33714;SDS011;20043;50.998;4.754;2022-08-03T13:52:47;6.82;;;1.13;;
33714;SDS011;20043;50.998;4.754;2022-08-03T13:55:12;5.97;;;1.13;;
33714;SDS011;20043;50.998;4.754;2022-08-03T13:57:38;2.67;;;0.77;;
33714;SDS011;20043;50.998;4.754;2022-08-03T14:00:04;7.28;;;1.05;;
33714;SDS011;20043;50.998;4.754;2022-08-03T14:02:30;4.82;;;0.90;;
33714;SDS011;20043;50.998;4.754;2022-08-03T14:04:56;2.75;;;0.93;;
33714;SDS011;20043;50.998;4.754;2022-08-03T14:07:21;3.47;;;0.95;;
33714;SDS011;20043;50.998;4.754;2022-08-03T14:09:47;4.30;;;0.68;;
33714;SDS011;20043;50.998;4.754;2022-08-03T14:12:13;3.30;;;0.90;;
33714;SDS011;20043;50.998;4.754;2022-08-03T14:14:38;2.85;;;1.00;;
33714;SDS011;20043;50.998;4.754;2022-08-03T14:17:04;7.70;;;1.27;;
33714;SDS011;20043;50.998;4.754;2022-08-03T14:19:30;5.88;;;1.20;;
33714;SDS011;20043;50.998;4.754;2022-08-03T14:21:56;5.85;;;1.10;;
33714;SDS011;20043;50.998;4.754;2022-08-03T14:24:22;3.00;;;1.13;;
33714;SDS011;20043;50.998;4.754;2022-08-03T14:26:48;3.72;;;1.05;;
33714;SDS011;20043;50.998;4.754;2022-08-03T14:29:13;3.53;;;0.73;;
33714;SDS011;20043;50.998;4.754;2022-08-03T14:31:39;3.78;;;0.90;;
33714;SDS011;20043;50.998;4.754;2022-08-03T14:34:04;5.80;;;0.98;;
33714;SDS011;20043;50.998;4.754;2022-08-03T14:36:30;3.90;;;1.10;;
33714;SDS011;20043;50.998;4.754;2022-08-03T14:38:56;4.10;;;0.80;;
33714;SDS011;20043;50.998;4.754;2022-08-03T14:41:21;5.90;;;0.90;;
33714;SDS011;20043;50.998;4.754;2022-08-03T14:43:47;5.68;;;1.27;;
33714;SDS011;20043;50.998;4.754;2022-08-03T14:46:13;3.45;;;1.10;;
33714;SDS011;20043;50.998;4.754;2022-08-03T14:48:39;3.58;;;1.00;;
33714;SDS011;20043;50.998;4.754;2022-08-03T14:51:04;4.13;;;0.95;;
33714;SDS011;20043;50.998;4.754;2022-08-03T14:53:30;3.22;;;0.93;;
33714;SDS011;20043;50.998;4.754;2022-08-03T14:55:56;6.88;;;0.90;;
33714;SDS011;20043;50.998;4.754;2022-08-03T14:58:23;10.40;;;1.40;;
33714;SDS011;20043;50.998;4.754;2022-08-03T15:00:52;3.03;;;1.08;;
33714;SDS011;20043;50.998;4.754;2022-08-03T15:03:19;6.75;;;1.00;;
33714;SDS011;20043;50.998;4.754;2022-08-03T15:05:47;3.60;;;0.77;;
33714;SDS011;20043;50.998;4.754;2022-08-03T15:08:14;7.90;;;1.55;;
33714;SDS011;20043;50.998;4.754;2022-08-03T15:10:46;4.40;;;1.30;;
33714;SDS011;20043;50.998;4.754;2022-08-03T15:13:13;10.57;;;1.50;;
33714;SDS011;20043;50.998;4.754;2022-08-03T15:15:39;3.30;;;0.80;;
33714;SDS011;20043;50.998;4.754;2022-08-03T15:18:05;3.13;;;1.20;;
33714;SDS011;20043;50.998;4.754;2022-08-03T15:20:30;1.77;;;0.73;;
33714;SDS011;20043;50.998;4.754;2022-08-03T15:22:56;2.17;;;0.60;;
33714;SDS011;20043;50.998;4.754;2022-08-03T15:25:21;2.00;;;0.90;;
33714;SDS011;20043;50.998;4.754;2022-08-03T15:27:47;4.28;;;1.27;;
33714;SDS011;20043;50.998;4.754;2022-08-03T15:30:13;1.45;;;0.70;;
33714;SDS011;20043;50.998;4.754;2022-08-03T15:32:38;4.22;;;1.17;;